Terminal Aerodrome Forecast
Issued by NWS Charleston, WV

Current Version | Previous Version | Text Only | Print | Product List | Glossary Off
Versions: 1 2 3 4 5 6 7 8 9 10 11 12 13 14 15 16 17 18 19 20 21 22 23 24 25 26 27

000
FTUS41 KRLX 310200 AAA
TAFEKN
TAF AMD
KEKN 310244Z 3103/3124 17005KT P6SM BKN250
     FM310700 25005KT 5SM BR OVC060
     FM311000 24005KT 6SM -SHRA OVC045
      TEMPO 3110/3113 5SM SHRA
     FM311800 25008KT 6SM SHRA VCTS OVC040CB PROB30 3119/3121 2SM
      -TSRA OVC050CB
     FM312200 25007KT P6SM OVC050=

USA.gov is the U.S. government's official web portal to all federal, state and local government web resources and services.